Current Weather

Payson

Payson, Arizona (KPAN)

Report from: Friday, April 19, 2024 2:35 AM MST
Current time: Friday, April 19, 2024 2:54 AM MST

Nearby weather – Weather history – Daily summaries
Weather forecast

Present weatherHaze
Temperature9.0°C (48.2°F)
Dew point-4.0°C (24.8°F)
Winds Calm
Visibility1.8 mi. (2.8 km)
Clouds Scattered clouds 200 ft. (61 m)
Altimeter30.07 in.Hg (1018 mB)
Relative humidity40 %
Density altitude-816 ft. (-249 m)
Remarks Fully automated report
Automated weather observing station with precipitation discriminator
Present weather sensor not operating
Lightning detection system not operating
Flight conditions Instrument Meteorological Conditions
Raw dataKPAN 190935Z AUTO 00000KT 1 3/4SM HZ SCT002 09/M04 A3007 RMK AO2 PWINO TSNO
An error has occurred. This application may no longer respond until reloaded. Reload 🗙